Time,TemperatureF,DewpointF,PressureIn,WindDirection,WindDirectionDegrees,WindSpeedMPH,WindSpeedGustMPH,Humidity,HourlyPrecipIn,Conditions,Clouds,dailyrainin,SoftwareType,DateUTC
2013-05-26 00:01:00,54.0,48.0,29.95,South,170,0.0,1.0,78,-99.99,,,-99.99,,2013-05-26 07:01:00,
2013-05-26 00:11:00,54.0,49.0,29.95,West,274,0.0,1.0,82,-99.99,,,-99.99,,2013-05-26 07:11:00,
2013-05-26 00:21:00,54.0,49.0,29.95,ENE,75,1.0,1.0,81,-99.99,,,-99.99,,2013-05-26 07:21:00,
2013-05-26 00:31:00,54.0,49.0,29.95,ESE,118,2.0,2.0,84,-99.99,,,-99.99,,2013-05-26 07:31:00,
2013-05-26 00:42:00,54.0,49.0,29.95,ESE,118,2.0,2.0,84,-99.99,,,-99.99,,2013-05-26 07:42:00,
2013-05-26 00:52:00,54.0,49.0,29.95,ENE,72,1.0,1.0,82,-99.99,,,-99.99,,2013-05-26 07:52:00,
2013-05-26 01:01:00,53.0,49.0,29.95,NE,51,1.0,1.0,83,-99.99,,,-99.99,,2013-05-26 08:01:00,
2013-05-26 01:11:00,54.0,50.0,29.95,ENE,68,1.0,1.0,86,-99.99,,,-99.99,,2013-05-26 08:11:00,
2013-05-26 01:21:00,54.0,50.0,29.94,ENE,68,1.0,2.0,86,-99.99,,,-99.99,,2013-05-26 08:21:00,
2013-05-26 01:32:00,53.0,50.0,29.94,South,170,1.0,2.0,89,-99.99,,,-99.99,,2013-05-26 08:32:00,
2013-05-26 01:42:00,53.0,50.0,29.94,South,170,1.0,2.0,89,-99.99,,,-99.99,,2013-05-26 08:42:00,
2013-05-26 01:52:00,53.0,50.0,29.94,SE,131,1.0,2.0,88,-99.99,,,-99.99,,2013-05-26 08:52:00,
2013-05-26 02:01:00,53.0,50.0,29.94,SE,131,1.0,2.0,88,-99.99,,,-99.99,,2013-05-26 09:01:00,
2013-05-26 02:11:00,53.0,49.0,29.94,South,171,0.0,1.0,86,-99.99,,,-99.99,,2013-05-26 09:11:00,
2013-05-26 02:21:00,53.0,50.0,29.94,South,187,0.0,1.0,88,-99.99,,,-99.99,,2013-05-26 09:21:00,
2013-05-26 02:33:00,53.0,50.0,29.94,SSW,198,1.0,2.0,89,-99.99,,,-99.99,,2013-05-26 09:33:00,
2013-05-26 02:42:00,53.0,50.0,29.94,SSW,198,1.0,2.0,89,-99.99,,,-99.99,,2013-05-26 09:42:00,
2013-05-26 02:52:00,52.0,50.0,29.95,WNW,295,2.0,4.0,93,-99.99,,,-99.99,,2013-05-26 09:52:00,
2013-05-26 03:02:00,52.0,50.0,29.95,WNW,295,2.0,4.0,93,-99.99,,,-99.99,,2013-05-26 10:02:00,
2013-05-26 03:12:00,53.0,51.0,29.95,West,279,1.0,2.0,94,-99.99,,,-99.99,,2013-05-26 10:12:00,
2013-05-26 03:22:00,53.0,51.0,29.96,WSW,247,1.0,2.0,92,-99.99,,,-99.99,,2013-05-26 10:22:00,
2013-05-26 03:32:00,53.0,51.0,29.96,SSE,159,1.0,1.0,93,-99.99,,,-99.99,,2013-05-26 10:32:00,
2013-05-26 03:42:00,53.0,51.0,29.96,SSE,159,1.0,1.0,93,-99.99,,,-99.99,,2013-05-26 10:42:00,
2013-05-26 03:52:00,52.0,51.0,29.96,SE,128,2.0,3.0,95,-99.99,,,-99.99,,2013-05-26 10:52:00,
2013-05-26 04:03:00,53.0,52.0,29.96,NNW,333,1.0,6.0,96,-99.99,,,-99.99,,2013-05-26 11:03:00,
2013-05-26 04:11:00,53.0,51.0,29.96,West,259,4.0,8.0,95,-99.99,,,-99.99,,2013-05-26 11:11:00,
2013-05-26 04:22:00,52.0,51.0,29.96,West,271,5.0,8.0,96,-99.99,,,-99.99,,2013-05-26 11:22:00,
2013-05-26 04:32:00,52.0,52.0,29.96,West,271,5.0,8.0,96,-99.99,,,-99.99,,2013-05-26 11:32:00,
2013-05-26 04:42:00,52.0,52.0,29.96,West,272,4.0,7.0,98,-99.99,,,-99.99,,2013-05-26 11:42:00,
2013-05-26 04:52:00,52.0,52.0,29.96,WNW,288,3.0,4.0,98,-99.99,,,-99.99,,2013-05-26 11:52:00,
2013-05-26 05:01:00,52.0,52.0,29.96,West,279,4.0,5.0,98,-99.99,,,-99.99,,2013-05-26 12:01:00,
2013-05-26 05:11:00,52.0,51.0,29.97,SW,221,3.0,5.0,97,-99.99,,,-99.99,,2013-05-26 12:11:00,
2013-05-26 05:21:00,52.0,52.0,29.97,South,176,1.0,2.0,99,-99.99,,,-99.99,,2013-05-26 12:21:00,
2013-05-26 05:32:00,52.0,52.0,29.97,NNE,20,1.0,2.0,100,-99.99,,,-99.99,,2013-05-26 12:32:00,
2013-05-26 05:42:00,52.0,52.0,29.97,NNE,20,1.0,2.0,100,-99.99,,,-99.99,,2013-05-26 12:42:00,
2013-05-26 05:52:00,52.0,52.0,29.97,NW,325,1.0,2.0,100,-99.99,,,-99.99,,2013-05-26 12:52:00,
2013-05-26 06:02:00,52.0,52.0,29.97,NW,325,1.0,2.0,100,-99.99,,,-99.99,,2013-05-26 13:02:00,
2013-05-26 06:11:00,52.0,52.0,29.97,SE,133,1.0,1.0,100,-99.99,,,-99.99,,2013-05-26 13:11:00,
2013-05-26 06:21:00,52.0,52.0,29.97,NNW,329,1.0,1.0,100,-99.99,,,-99.99,,2013-05-26 13:21:00,
2013-05-26 06:32:00,51.0,51.0,29.97,North,350,3.0,4.0,100,-99.99,,,-99.99,,2013-05-26 13:32:00,
2013-05-26 06:42:00,51.0,51.0,29.97,North,5,3.0,4.0,100,-99.99,,,-99.99,,2013-05-26 13:42:00,
2013-05-26 06:52:00,51.0,51.0,29.98,NNE,23,1.0,3.0,100,-99.99,,,-99.99,,2013-05-26 13:52:00,
2013-05-26 07:01:00,51.0,51.0,29.98,NNE,24,1.0,3.0,100,-99.99,,,-99.99,,2013-05-26 14:01:00,
2013-05-26 07:11:00,50.0,50.0,29.98,North,3,1.0,3.0,100,-99.99,,,-99.99,,2013-05-26 14:11:00,
2013-05-26 07:21:00,50.0,50.0,29.98,North,0,2.0,3.0,100,-99.99,,,-99.99,,2013-05-26 14:21:00,
2013-05-26 07:32:00,51.0,51.0,29.98,North,3,1.0,2.0,100,-99.99,,,-99.99,,2013-05-26 14:32:00,
2013-05-26 07:41:00,51.0,51.0,29.98,NE,36,1.0,2.0,100,-99.99,,,-99.99,,2013-05-26 14:41:00,
2013-05-26 07:51:00,51.0,51.0,29.98,NE,56,2.0,2.0,100,-99.99,,,-99.99,,2013-05-26 14:51:00,
2013-05-26 08:01:00,51.0,51.0,29.99,ENE,71,1.0,1.0,100,-99.99,,,-99.99,,2013-05-26 15:01:00,
2013-05-26 08:12:00,52.0,52.0,29.99,East,93,2.0,2.0,100,-99.99,,,-99.99,,2013-05-26 15:12:00,
2013-05-26 08:22:00,52.0,52.0,29.99,East,80,2.0,3.0,100,-99.99,,,-99.99,,2013-05-26 15:22:00,
2013-05-26 08:33:00,53.0,53.0,29.99,East,96,2.0,2.0,100,-99.99,,,-99.99,,2013-05-26 15:33:00,
2013-05-26 08:43:00,53.0,53.0,29.99,NE,54,1.0,2.0,100,-99.99,,,-99.99,,2013-05-26 15:43:00,
2013-05-26 08:53:00,54.0,54.0,29.99,NE,50,1.0,2.0,100,-99.99,,,-99.99,,2013-05-26 15:53:00,
2013-05-26 09:03:00,53.0,53.0,29.99,North,9,1.0,2.0,100,-99.99,,,-99.99,,2013-05-26 16:03:00,
2013-05-26 09:12:00,53.0,53.0,29.99,NNW,343,3.0,4.0,100,-99.99,,,-99.99,,2013-05-26 16:12:00,
2013-05-26 09:23:00,53.0,53.0,30.00,NW,322,1.0,2.0,99,-99.99,,,-99.99,,2013-05-26 16:23:00,
2013-05-26 09:33:00,54.0,54.0,30.00,SE,142,1.0,2.0,99,-99.99,,,-99.99,,2013-05-26 16:33:00,
2013-05-26 09:42:00,54.0,54.0,30.00,SE,142,1.0,2.0,99,-99.99,,,-99.99,,2013-05-26 16:42:00,
2013-05-26 09:52:00,54.0,54.0,30.00,ESE,109,2.0,2.0,100,-99.99,,,-99.99,,2013-05-26 16:52:00,
2013-05-26 10:02:00,55.0,55.0,30.00,ENE,76,2.0,3.0,100,-99.99,,,-99.99,,2013-05-26 17:02:00,
2013-05-26 10:11:00,56.0,55.0,30.00,NNW,327,1.0,4.0,97,-99.99,,,-99.99,,2013-05-26 17:11:00,
2013-05-26 10:22:00,56.0,54.0,30.00,NW,308,4.0,8.0,92,-99.99,,,-99.99,,2013-05-26 17:22:00,
2013-05-26 10:32:00,57.0,55.0,30.00,WNW,291,6.0,12.0,91,-99.99,,,-99.99,,2013-05-26 17:32:00,
2013-05-26 10:42:00,57.0,55.0,30.00,West,273,5.0,11.0,90,-99.99,,,-99.99,,2013-05-26 17:42:00,
2013-05-26 10:52:00,57.0,53.0,30.00,West,279,8.0,12.0,85,-99.99,,,-99.99,,2013-05-26 17:52:00,
2013-05-26 11:01:00,57.0,53.0,30.00,WNW,286,9.0,14.0,85,-99.99,,,-99.99,,2013-05-26 18:01:00,
2013-05-26 11:12:00,58.0,53.0,30.01,WNW,285,7.0,11.0,84,-99.99,,,-99.99,,2013-05-26 18:12:00,
2013-05-26 11:21:00,59.0,53.0,30.01,WNW,286,5.0,10.0,78,-99.99,,,-99.99,,2013-05-26 18:21:00,
2013-05-26 11:31:00,60.0,52.0,30.00,WNW,289,8.0,14.0,76,-99.99,,,-99.99,,2013-05-26 18:31:00,
2013-05-26 11:42:00,60.0,51.0,30.00,West,270,10.0,16.0,72,-99.99,,,-99.99,,2013-05-26 18:42:00,
2013-05-26 11:52:00,60.0,52.0,30.00,West,267,4.0,9.0,74,-99.99,,,-99.99,,2013-05-26 18:52:00,
2013-05-26 12:01:00,61.0,51.0,30.00,West,277,4.0,8.0,70,-99.99,,,-99.99,,2013-05-26 19:01:00,
2013-05-26 12:11:00,62.0,51.0,30.00,WNW,283,8.0,13.0,66,-99.99,,,-99.99,,2013-05-26 19:11:00,
2013-05-26 12:21:00,63.0,52.0,30.00,West,276,8.0,17.0,66,-99.99,,,-99.99,,2013-05-26 19:21:00,
2013-05-26 12:32:00,62.0,49.0,30.00,West,281,9.0,16.0,62,-99.99,,,-99.99,,2013-05-26 19:32:00,
2013-05-26 12:42:00,62.0,49.0,30.00,West,281,9.0,16.0,62,-99.99,,,-99.99,,2013-05-26 19:42:00,
2013-05-26 12:52:00,63.0,49.0,30.00,WNW,288,9.0,16.0,60,-99.99,,,-99.99,,2013-05-26 19:52:00,
2013-05-26 13:02:00,63.0,49.0,29.99,West,280,10.0,20.0,60,-99.99,,,-99.99,,2013-05-26 20:02:00,
2013-05-26 13:11:00,64.0,50.0,29.99,West,274,11.0,17.0,61,-99.99,,,-99.99,,2013-05-26 20:11:00,
2013-05-26 13:21:00,63.0,48.0,29.99,West,276,10.0,20.0,57,-99.99,,,-99.99,,2013-05-26 20:21:00,
2013-05-26 13:32:00,63.0,47.0,29.99,WNW,288,12.0,19.0,55,-99.99,,,-99.99,,2013-05-26 20:32:00,
2013-05-26 13:41:00,63.0,47.0,30.00,WNW,292,10.0,18.0,55,-99.99,,,-99.99,,2013-05-26 20:41:00,
2013-05-26 13:52:00,64.0,48.0,29.99,WNW,282,10.0,19.0,56,-99.99,,,-99.99,,2013-05-26 20:52:00,
2013-05-26 14:01:00,64.0,48.0,29.99,WNW,282,10.0,19.0,56,-99.99,,,-99.99,,2013-05-26 21:01:00,
2013-05-26 14:11:00,64.0,48.0,29.98,WNW,282,11.0,18.0,55,-99.99,,,-99.99,,2013-05-26 21:11:00,
2013-05-26 14:22:00,64.0,48.0,29.98,WNW,284,8.0,16.0,56,-99.99,,,-99.99,,2013-05-26 21:22:00,
2013-05-26 14:33:00,65.0,48.0,29.98,WNW,287,14.0,22.0,54,-99.99,,,-99.99,,2013-05-26 21:33:00,
2013-05-26 14:43:00,63.0,47.0,29.98,WNW,282,17.0,27.0,54,-99.99,,,-99.99,,2013-05-26 21:43:00,
2013-05-26 14:53:00,63.0,46.0,29.98,WNW,286,14.0,22.0,53,-99.99,,,-99.99,,2013-05-26 21:53:00,
2013-05-26 15:02:00,63.0,46.0,29.98,WNW,286,14.0,22.0,53,-99.99,,,-99.99,,2013-05-26 22:02:00,
2013-05-26 15:12:00,64.0,46.0,29.98,WNW,283,14.0,24.0,52,-99.99,,,-99.99,,2013-05-26 22:12:00,
2013-05-26 15:23:00,64.0,47.0,29.99,WNW,289,16.0,28.0,52,-99.99,,,-99.99,,2013-05-26 22:23:00,
2013-05-26 15:33:00,64.0,46.0,29.99,WNW,291,12.0,21.0,52,-99.99,,,-99.99,,2013-05-26 22:33:00,
2013-05-26 15:42:00,64.0,46.0,29.99,WNW,291,12.0,21.0,52,-99.99,,,-99.99,,2013-05-26 22:42:00,
2013-05-26 15:53:00,64.0,47.0,29.99,West,277,12.0,19.0,54,-99.99,,,-99.99,,2013-05-26 22:53:00,
2013-05-26 16:02:00,64.0,47.0,29.99,West,281,14.0,22.0,53,-99.99,,,-99.99,,2013-05-26 23:02:00,
2013-05-26 16:11:00,64.0,47.0,29.99,West,280,12.0,23.0,53,-99.99,,,-99.99,,2013-05-26 23:11:00,
2013-05-26 16:22:00,64.0,46.0,29.99,West,280,14.0,24.0,51,-99.99,,,-99.99,,2013-05-26 23:22:00,
2013-05-26 16:32:00,64.0,47.0,29.99,WNW,286,14.0,24.0,54,-99.99,,,-99.99,,2013-05-26 23:32:00,
2013-05-26 16:43:00,64.0,47.0,30.00,West,281,14.0,24.0,54,-99.99,,,-99.99,,2013-05-26 23:43:00,
2013-05-26 16:51:00,63.0,48.0,29.99,WNW,292,13.0,22.0,56,-99.99,,,-99.99,,2013-05-26 23:51:00,
2013-05-26 17:02:00,64.0,48.0,30.00,WNW,284,13.0,21.0,56,-99.99,,,-99.99,,2013-05-27 00:02:00,
2013-05-26 17:11:00,64.0,49.0,29.99,WNW,286,9.0,17.0,57,-99.99,,,-99.99,,2013-05-27 00:11:00,
2013-05-26 17:21:00,65.0,48.0,29.99,WNW,288,12.0,21.0,54,-99.99,,,-99.99,,2013-05-27 00:21:00,
2013-05-26 17:31:00,65.0,48.0,29.99,West,279,9.0,15.0,53,-99.99,,,-99.99,,2013-05-27 00:31:00,
2013-05-26 17:41:00,65.0,48.0,29.99,West,279,9.0,15.0,53,-99.99,,,-99.99,,2013-05-27 00:41:00,
2013-05-26 17:52:00,65.0,47.0,29.99,WNW,294,12.0,18.0,52,-99.99,,,-99.99,,2013-05-27 00:52:00,
2013-05-26 18:01:00,65.0,47.0,29.99,WNW,289,12.0,22.0,53,-99.99,,,-99.99,,2013-05-27 01:01:00,
2013-05-26 18:11:00,65.0,48.0,30.00,WNW,299,12.0,20.0,53,-99.99,,,-99.99,,2013-05-27 01:11:00,
2013-05-26 18:22:00,65.0,47.0,29.99,WNW,290,10.0,16.0,52,-99.99,,,-99.99,,2013-05-27 01:22:00,
2013-05-26 18:31:00,64.0,48.0,30.00,West,273,10.0,18.0,55,-99.99,,,-99.99,,2013-05-27 01:31:00,
2013-05-26 18:42:00,64.0,47.0,30.00,WNW,282,10.0,17.0,55,-99.99,,,-99.99,,2013-05-27 01:42:00,
2013-05-26 18:52:00,64.0,46.0,30.00,WNW,290,13.0,21.0,53,-99.99,,,-99.99,,2013-05-27 01:52:00,
2013-05-26 19:01:00,64.0,47.0,30.00,WNW,289,10.0,18.0,54,-99.99,,,-99.99,,2013-05-27 02:01:00,
2013-05-26 19:11:00,63.0,47.0,30.00,WNW,288,9.0,17.0,54,-99.99,,,-99.99,,2013-05-27 02:11:00,
2013-05-26 19:21:00,63.0,47.0,30.00,West,275,10.0,23.0,57,-99.99,,,-99.99,,2013-05-27 02:21:00,
2013-05-26 19:32:00,62.0,47.0,30.00,WNW,283,10.0,16.0,57,-99.99,,,-99.99,,2013-05-27 02:32:00,
2013-05-26 19:42:00,61.0,47.0,30.00,WNW,282,13.0,19.0,60,-99.99,,,-99.99,,2013-05-27 02:42:00,
2013-05-26 19:52:00,61.0,47.0,30.00,WNW,282,11.0,19.0,61,-99.99,,,-99.99,,2013-05-27 02:52:00,
2013-05-26 20:02:00,60.0,48.0,30.00,WNW,285,12.0,19.0,63,-99.99,,,-99.99,,2013-05-27 03:02:00,
2013-05-26 20:11:00,60.0,48.0,30.00,West,281,11.0,21.0,65,-99.99,,,-99.99,,2013-05-27 03:11:00,
2013-05-26 20:21:00,59.0,48.0,30.00,West,278,8.0,16.0,65,-99.99,,,-99.99,,2013-05-27 03:21:00,
2013-05-26 20:33:00,59.0,48.0,30.00,West,271,8.0,16.0,65,-99.99,,,-99.99,,2013-05-27 03:33:00,
2013-05-26 20:42:00,59.0,48.0,30.00,West,272,7.0,14.0,66,-99.99,,,-99.99,,2013-05-27 03:42:00,
2013-05-26 20:53:00,59.0,48.0,30.00,West,260,5.0,9.0,66,-99.99,,,-99.99,,2013-05-27 03:53:00,
2013-05-26 21:02:00,59.0,48.0,30.00,West,260,5.0,10.0,67,-99.99,,,-99.99,,2013-05-27 04:02:00,
2013-05-26 21:12:00,59.0,48.0,30.00,West,279,7.0,15.0,67,-99.99,,,-99.99,,2013-05-27 04:12:00,
2013-05-26 21:22:00,59.0,48.0,30.00,WNW,288,7.0,13.0,67,-99.99,,,-99.99,,2013-05-27 04:22:00,
2013-05-26 21:33:00,59.0,48.0,30.01,West,280,8.0,14.0,66,-99.99,,,-99.99,,2013-05-27 04:33:00,
2013-05-26 21:42:00,59.0,47.0,30.01,West,279,9.0,17.0,66,-99.99,,,-99.99,,2013-05-27 04:42:00,
2013-05-26 21:52:00,58.0,48.0,30.01,West,279,8.0,14.0,67,-99.99,,,-99.99,,2013-05-27 04:52:00,
2013-05-26 22:02:00,58.0,48.0,30.01,West,280,10.0,18.0,67,-99.99,,,-99.99,,2013-05-27 05:02:00,
2013-05-26 22:12:00,58.0,48.0,30.02,West,277,9.0,15.0,68,-99.99,,,-99.99,,2013-05-27 05:12:00,
2013-05-26 22:22:00,58.0,47.0,30.02,West,275,9.0,17.0,67,-99.99,,,-99.99,,2013-05-27 05:22:00,
2013-05-26 22:32:00,58.0,47.0,30.02,West,271,8.0,14.0,67,-99.99,,,-99.99,,2013-05-27 05:32:00,
2013-05-26 22:42:00,58.0,47.0,30.02,West,271,8.0,14.0,67,-99.99,,,-99.99,,2013-05-27 05:42:00,
2013-05-26 22:52:00,58.0,47.0,30.02,West,280,7.0,12.0,68,-99.99,,,-99.99,,2013-05-27 05:52:00,
2013-05-26 23:01:00,57.0,47.0,30.02,WNW,286,9.0,16.0,68,-99.99,,,-99.99,,2013-05-27 06:01:00,
2013-05-26 23:11:00,57.0,47.0,30.02,WNW,282,8.0,12.0,68,-99.99,,,-99.99,,2013-05-27 06:11:00,
2013-05-26 23:21:00,57.0,47.0,30.01,West,281,8.0,14.0,69,-99.99,,,-99.99,,2013-05-27 06:21:00,
2013-05-26 23:32:00,57.0,47.0,30.01,WNW,283,9.0,16.0,69,-99.99,,,-99.99,,2013-05-27 06:32:00,
2013-05-26 23:41:00,56.0,47.0,30.01,WNW,287,11.0,16.0,70,-99.99,,,-99.99,,2013-05-27 06:41:00,
2013-05-26 23:52:00,56.0,47.0,30.00,WNW,290,9.0,15.0,71,-99.99,,,-99.99,,2013-05-27 06:52:00,